Time;durP1;ratioP1;P1;durP2;ratioP2;P2;SDS_P1;SDS_P2;PMS_P1;PMS_P2;Temp;Humidity;BMP_temperature;BMP_pressure;BME280_temperature;BME280_humidity;BME280_pressure;Samples;Min_cycle;Max_cycle;Signal;HPM_P1;HPM_P2
2023/08/27 00:01:17;;;;;;;3.05;2.30;;;;;;;18.51;93.81;101006.94;6275492;28;20576;-67
2023/08/27 00:04:38;;;;;;;2.97;2.38;;;;;;;18.54;93.43;101010.16;6277793;28;20237;-68
2023/08/27 00:08:00;;;;;;;4.43;3.67;;;;;;;18.55;93.00;101005.53;6293933;28;20238;-68
2023/08/27 00:11:21;;;;;;;2.88;2.30;;;;;;;18.29;93.23;101012.19;6305831;28;20230;-68
2023/08/27 00:14:42;;;;;;;2.38;2.03;;;;;;;18.27;93.59;101008.81;6308113;28;20251;-68
2023/08/27 00:18:04;;;;;;;2.88;2.63;;;;;;;18.38;93.66;100998.50;6275666;28;20230;-68
2023/08/27 00:21:25;;;;;;;2.33;2.13;;;;;;;18.34;93.55;100989.81;6307133;28;20230;-68
2023/08/27 00:24:48;;;;;;;4.55;2.28;;;;;;;18.34;93.93;100985.22;6305700;28;20223;-69
2023/08/27 00:28:09;;;;;;;5.35;2.60;;;;;;;18.32;93.80;100983.69;6281354;28;20594;-68
2023/08/27 00:31:30;;;;;;;2.90;2.70;;;;;;;18.15;93.73;100990.31;6289107;28;20226;-67
2023/08/27 00:34:51;;;;;;;2.88;2.60;;;;;;;17.90;94.82;100975.19;6310362;28;20230;-68
2023/08/27 00:38:12;;;;;;;5.78;3.25;;;;;;;18.04;95.36;100964.34;6284204;28;20238;-68
2023/08/27 00:41:34;;;;;;;2.92;2.70;;;;;;;18.12;94.96;100947.03;6293929;28;20242;-68
2023/08/27 00:44:55;;;;;;;2.88;2.58;;;;;;;18.08;94.92;100951.16;6255811;28;20312;-67
2023/08/27 00:48:17;;;;;;;3.78;3.45;;;;;;;18.11;94.91;100943.44;6282731;28;20982;-69
2023/08/27 00:51:39;;;;;;;2.75;2.55;;;;;;;18.08;94.89;100942.97;6296801;28;20253;-68
2023/08/27 00:55:01;;;;;;;7.82;3.42;;;;;;;18.14;94.73;100937.63;6257711;28;20246;-68
2023/08/27 00:58:24;;;;;;;3.60;2.65;;;;;;;18.10;94.46;100944.50;6290699;28;20230;-69
2023/08/27 01:01:45;;;;;;;2.53;2.33;;;;;;;17.70;95.03;100938.47;6271521;28;20238;-68
2023/08/27 01:05:06;;;;;;;5.88;2.65;;;;;;;17.84;95.25;100930.38;6275172;28;20230;-68
2023/08/27 01:08:35;;;;;;;3.30;2.20;;;;;;;17.88;95.00;100936.28;6267577;28;20230;-69
2023/08/27 01:12:03;;;;;;;2.80;2.38;;;;;;;18.04;94.99;100953.41;6288670;28;20325;-69
2023/08/27 01:15:28;;;;;;;3.45;2.58;;;;;;;17.77;94.87;100951.22;6309007;28;20528;-68
2023/08/27 01:18:50;;;;;;;3.85;2.88;;;;;;;18.07;94.60;100963.94;6296276;28;20230;-67
2023/08/27 01:22:13;;;;;;;3.00;2.78;;;;;;;17.61;94.35;100973.13;6290789;28;20226;-68
2023/08/27 01:25:41;;;;;;;3.20;2.50;;;;;;;17.48;95.17;100979.13;6309969;28;20230;-67
2023/08/27 01:29:10;;;;;;;5.30;2.78;;;;;;;17.80;95.70;100959.03;6308796;28;21113;-67
2023/08/27 01:32:35;;;;;;;2.72;2.35;;;;;;;17.91;95.22;100944.97;6308393;28;20229;-68
2023/08/27 01:35:57;;;;;;;3.63;3.20;;;;;;;17.86;94.97;100960.19;6292101;28;20272;-68
2023/08/27 01:39:20;;;;;;;2.45;2.25;;;;;;;17.58;95.18;100971.59;6308712;28;20242;-68
2023/08/27 01:42:41;;;;;;;2.55;2.35;;;;;;;17.47;95.15;100987.47;6310951;28;20230;-67
2023/08/27 01:46:03;;;;;;;4.30;3.58;;;;;;;17.64;95.45;100978.22;6308207;28;20337;-69
2023/08/27 01:49:24;;;;;;;2.88;2.67;;;;;;;17.79;95.18;100975.59;6282688;28;20235;-67
2023/08/27 01:52:45;;;;;;;3.65;3.30;;;;;;;17.90;94.67;100976.00;6292874;28;20230;-68
2023/08/27 01:56:07;;;;;;;5.90;2.75;;;;;;;17.73;94.22;100947.13;6307134;28;20320;-69
2023/08/27 01:59:29;;;;;;;5.03;3.42;;;;;;;17.85;93.94;100944.84;6276837;28;20321;-68
2023/08/27 02:02:50;;;;;;;7.00;4.22;;;;;;;17.75;93.68;100925.16;6272584;28;20234;-68
2023/08/27 02:06:11;;;;;;;2.95;2.42;;;;;;;17.65;94.02;100921.81;6294553;28;20320;-68
2023/08/27 02:09:34;;;;;;;2.50;2.40;;;;;;;17.67;94.13;100915.13;6281827;28;20231;-68
2023/08/27 02:12:57;;;;;;;3.25;3.05;;;;;;;17.63;93.78;100900.16;6282531;28;20238;-68
2023/08/27 02:16:18;;;;;;;3.70;3.40;;;;;;;17.55;93.65;100892.91;6283719;28;20540;-68
2023/08/27 02:19:39;;;;;;;3.55;3.22;;;;;;;17.50;93.54;100884.41;6283396;28;20314;-67
2023/08/27 02:23:00;;;;;;;3.03;2.72;;;;;;;17.51;93.48;100886.13;6285902;28;20997;-68
2023/08/27 02:26:21;;;;;;;2.92;2.72;;;;;;;17.41;93.35;100877.31;6284817;28;20234;-68
2023/08/27 02:29:45;;;;;;;3.22;2.92;;;;;;;17.38;93.59;100883.09;6263420;28;20223;-68
2023/08/27 02:33:05;;;;;;;2.60;2.40;;;;;;;17.29;93.41;100889.63;6252791;28;20233;-68
2023/08/27 02:36:26;;;;;;;4.43;2.55;;;;;;;17.24;93.72;100892.03;6298780;28;20234;-68
2023/08/27 02:39:49;;;;;;;4.00;3.20;;;;;;;17.12;94.07;100893.47;6283405;28;20231;-68
2023/08/27 02:43:10;;;;;;;5.70;3.47;;;;;;;17.11;93.94;100894.50;6287585;28;20310;-68
2023/08/27 02:46:33;;;;;;;3.65;3.33;;;;;;;16.98;94.08;100905.09;6301117;28;20234;-68
2023/08/27 02:49:54;;;;;;;3.33;2.85;;;;;;;16.71;93.77;100917.28;6287185;28;22283;-68
2023/08/27 02:53:15;;;;;;;2.67;2.47;;;;;;;16.39;94.86;100913.78;6302753;28;20233;-68
2023/08/27 02:56:36;;;;;;;4.57;4.18;;;;;;;16.51;95.72;100906.97;6288279;28;20603;-68
2023/08/27 02:59:57;;;;;;;4.13;3.40;;;;;;;16.28;95.40;100886.91;6269622;28;20313;-67
2023/08/27 03:03:19;;;;;;;7.50;3.72;;;;;;;16.48;95.70;100890.97;6287581;28;20234;-67
2023/08/27 03:06:40;;;;;;;3.15;2.17;;;;;;;16.55;96.02;100884.69;6289801;28;20234;-67
2023/08/27 03:10:01;;;;;;;3.75;2.78;;;;;;;16.84;95.78;100888.66;6265203;28;21174;-68
2023/08/27 03:13:22;;;;;;;3.08;2.78;;;;;;;16.91;95.07;100881.47;6274772;28;20231;-68
2023/08/27 03:16:43;;;;;;;3.67;3.35;;;;;;;16.98;94.75;100866.97;6290661;28;20230;-67
2023/08/27 03:20:06;;;;;;;4.28;3.95;;;;;;;17.11;93.87;100860.94;6265712;28;20560;-68
2023/08/27 03:23:26;;;;;;;7.20;6.28;;;;;;;17.09;93.16;100855.69;6266067;28;20536;-67
2023/08/27 03:26:50;;;;;;;5.40;4.47;;;;;;;17.00;92.89;100864.91;6249234;28;20243;-67
2023/08/27 03:30:12;;;;;;;3.58;3.20;;;;;;;16.81;92.72;100865.38;6252545;28;20239;-67
2023/08/27 03:33:33;;;;;;;3.92;3.38;;;;;;;17.06;93.13;100855.19;6265508;28;20635;-68
2023/08/27 03:36:56;;;;;;;3.63;3.22;;;;;;;17.10;92.34;100845.66;6263257;28;20329;-67
2023/08/27 03:40:16;;;;;;;3.08;2.88;;;;;;;16.95;91.61;100851.00;6271673;28;20962;-67
2023/08/27 03:43:37;;;;;;;3.08;2.85;;;;;;;17.18;91.36;100845.59;6288963;28;20310;-67
2023/08/27 03:46:58;;;;;;;3.78;3.20;;;;;;;17.17;90.68;100842.00;6269136;28;20334;-67
2023/08/27 03:50:20;;;;;;;3.67;3.38;;;;;;;16.79;90.87;100851.09;6258127;28;20231;-67
2023/08/27 03:53:42;;;;;;;3.40;3.10;;;;;;;16.98;91.51;100838.91;6274285;28;20513;-67
2023/08/27 03:57:03;;;;;;;4.80;2.78;;;;;;;16.99;91.24;100841.44;6280336;28;20339;-67
2023/08/27 04:00:24;;;;;;;4.68;4.15;;;;;;;17.00;91.40;100831.41;6283692;28;20221;-69
2023/08/27 04:03:45;;;;;;;6.50;5.25;;;;;;;17.02;91.12;100824.72;6288537;28;20238;-68
2023/08/27 04:07:06;;;;;;;7.40;6.65;;;;;;;17.03;90.82;100818.25;6289528;28;20235;-68
2023/08/27 04:10:29;;;;;;;4.18;3.88;;;;;;;17.02;91.16;100826.63;6277159;28;20230;-68
2023/08/27 04:13:49;;;;;;;5.53;5.00;;;;;;;17.12;90.64;100824.50;6299263;28;20234;-68
2023/08/27 04:17:11;;;;;;;4.55;4.13;;;;;;;16.96;90.55;100819.16;6295481;28;20533;-68
2023/08/27 04:20:32;;;;;;;4.00;3.33;;;;;;;16.88;90.80;100832.81;6276773;28;20570;-68
2023/08/27 04:23:55;;;;;;;5.13;4.20;;;;;;;16.92;91.29;100831.44;6281213;28;20238;-68
2023/08/27 04:27:17;;;;;;;5.63;3.78;;;;;;;16.91;91.17;100836.03;6295852;28;20231;-68
2023/08/27 04:30:39;;;;;;;4.25;3.50;;;;;;;16.81;91.16;100835.41;6272816;28;20233;-67
2023/08/27 04:33:59;;;;;;;3.10;2.80;;;;;;;16.44;91.03;100837.88;6272888;28;20647;-69
2023/08/27 04:37:20;;;;;;;5.93;3.30;;;;;;;16.69;91.42;100828.63;6282045;28;20235;-67
2023/08/27 04:40:41;;;;;;;4.30;3.20;;;;;;;16.63;91.20;100841.09;6278605;28;20240;-67
2023/08/27 04:44:04;;;;;;;3.40;3.10;;;;;;;16.49;91.33;100844.56;6283817;28;20305;-68
2023/08/27 04:47:25;;;;;;;2.95;2.75;;;;;;;16.56;91.59;100837.38;6277161;28;22449;-68
2023/08/27 04:50:47;;;;;;;3.35;2.90;;;;;;;16.65;91.83;100836.31;6270914;28;20391;-68
2023/08/27 04:54:09;;;;;;;3.00;2.75;;;;;;;16.64;91.42;100844.66;6287342;28;20543;-68
2023/08/27 04:57:30;;;;;;;3.60;3.30;;;;;;;16.52;91.91;100848.81;6278301;28;20234;-68
2023/08/27 05:00:54;;;;;;;3.40;3.10;;;;;;;16.59;91.80;100856.09;6266535;28;20222;-67
2023/08/27 05:04:15;;;;;;;2.78;2.58;;;;;;;16.76;91.95;100859.59;6278090;28;20249;-67
2023/08/27 05:07:37;;;;;;;3.47;3.17;;;;;;;16.81;91.42;100875.41;6283129;28;20982;-68
2023/08/27 05:10:58;;;;;;;3.97;3.25;;;;;;;16.37;91.49;100881.28;6291177;28;20235;-67
2023/08/27 05:14:20;;;;;;;8.17;2.80;;;;;;;16.55;91.90;100881.09;6291677;28;20231;-68
2023/08/27 05:17:42;;;;;;;2.47;2.15;;;;;;;16.33;91.63;100877.22;6300858;28;20243;-67
2023/08/27 05:21:03;;;;;;;2.80;2.60;;;;;;;16.22;91.80;100866.69;6275087;28;20224;-67
2023/08/27 05:24:23;;;;;;;2.30;2.20;;;;;;;16.17;92.47;100877.22;6277059;28;20223;-66
2023/08/27 05:27:45;;;;;;;5.82;3.25;;;;;;;15.99;92.10;100877.44;6296229;28;20230;-68
2023/08/27 05:31:05;;;;;;;3.80;3.50;;;;;;;16.32;93.17;100867.34;6254975;28;20627;-66
2023/08/27 05:34:28;;;;;;;3.75;3.45;;;;;;;16.66;91.81;100867.13;6286392;28;20239;-67
2023/08/27 05:37:49;;;;;;;2.60;2.28;;;;;;;16.87;91.26;100866.53;6276630;28;20238;-67
2023/08/27 05:41:10;;;;;;;6.77;2.93;;;;;;;17.13;90.55;100861.63;6253087;28;20626;-67
2023/08/27 05:44:30;;;;;;;2.53;2.33;;;;;;;17.19;89.38;100861.75;6267767;28;20746;-68
2023/08/27 05:47:52;;;;;;;3.03;2.67;;;;;;;17.32;89.09;100840.22;6295060;28;20320;-66
2023/08/27 05:51:15;;;;;;;3.08;2.78;;;;;;;17.29;88.52;100837.84;6251731;28;20230;-68
2023/08/27 05:54:36;;;;;;;3.90;2.50;;;;;;;17.31;88.20;100829.50;6281374;28;20239;-68
2023/08/27 05:58:00;;;;;;;2.85;2.65;;;;;;;17.21;88.19;100840.63;6276311;28;20508;-68
2023/08/27 06:01:21;;;;;;;2.50;2.30;;;;;;;17.47;87.70;100830.25;6293848;28;20226;-68
2023/08/27 06:04:42;;;;;;;2.75;2.55;;;;;;;17.45;87.49;100826.84;6294946;28;20237;-67
2023/08/27 06:08:05;;;;;;;2.92;2.63;;;;;;;17.35;87.40;100825.38;6293051;28;20234;-67
2023/08/27 06:11:26;;;;;;;2.13;2.00;;;;;;;17.39;87.49;100827.56;6291750;28;20234;-67
2023/08/27 06:14:47;;;;;;;3.55;2.90;;;;;;;17.36;87.59;100830.66;6300970;28;20226;-68
2023/08/27 06:18:08;;;;;;;3.90;3.60;;;;;;;16.83;88.02;100818.88;6290990;28;20619;-67
2023/08/27 06:21:29;;;;;;;2.72;2.53;;;;;;;17.17;88.95;100819.34;6276546;28;20294;-67
2023/08/27 06:24:51;;;;;;;2.72;2.50;;;;;;;17.48;88.09;100814.75;6255045;28;20337;-68
2023/08/27 06:28:12;;;;;;;2.42;2.22;;;;;;;17.49;87.29;100814.59;6306723;28;20313;-67
2023/08/27 06:31:33;;;;;;;3.25;2.95;;;;;;;17.50;87.35;100816.25;6305045;28;20253;-68
2023/08/27 06:34:55;;;;;;;3.25;2.40;;;;;;;17.67;86.32;100807.97;6280255;28;20357;-68
2023/08/27 06:38:17;;;;;;;3.17;2.58;;;;;;;17.34;86.22;100820.94;6306280;28;20262;-69
2023/08/27 06:41:39;;;;;;;3.70;2.90;;;;;;;16.83;86.94;100827.91;6296441;28;20247;-70
2023/08/27 06:45:07;;;;;;;3.13;2.53;;;;;;;17.28;86.96;100833.44;6286338;28;20222;-68
2023/08/27 06:48:29;;;;;;;2.58;2.42;;;;;;;17.00;86.39;100810.44;6297514;28;20234;-69
2023/08/27 06:51:50;;;;;;;2.85;2.67;;;;;;;17.33;86.88;100816.53;6303259;28;20222;-67
2023/08/27 06:55:12;;;;;;;3.75;3.30;;;;;;;17.47;85.54;100821.19;6284458;28;20317;-69
2023/08/27 06:58:34;;;;;;;4.40;3.20;;;;;;;17.62;85.18;100819.41;6273605;28;20262;-70
2023/08/27 07:01:55;;;;;;;3.63;3.40;;;;;;;18.02;84.14;100815.47;6259124;28;20235;-70
2023/08/27 07:05:18;;;;;;;3.55;3.25;;;;;;;17.35;83.72;100822.66;6257492;28;20230;-67
2023/08/27 07:08:39;;;;;;;3.42;3.10;;;;;;;17.53;84.60;100812.31;6275885;28;20326;-71
2023/08/27 07:12:00;;;;;;;3.85;3.53;;;;;;;18.33;85.54;100813.44;6284413;28;20237;-69
2023/08/27 07:15:23;;;;;;;5.57;5.07;;;;;;;18.16;83.64;100806.47;6248034;28;20230;-72
2023/08/27 07:18:43;;;;;;;28.35;18.20;;;;;;;18.82;83.77;100800.91;6274902;28;20288;-74
2023/08/27 07:22:04;;;;;;;334.05;301.42;;;;;;;19.77;82.15;100794.16;6275634;28;20534;-71
2023/08/27 07:25:25;;;;;;;358.95;325.40;;;;;;;19.87;78.32;100788.34;6278818;28;20234;-71
2023/08/27 07:28:46;;;;;;;591.20;530.75;;;;;;;20.36;78.03;100788.31;6262137;28;20255;-71
2023/08/27 07:32:08;;;;;;;45.13;41.72;;;;;;;18.93;76.86;100792.22;6293250;28;20229;-66
2023/08/27 07:35:33;;;;;;;125.88;114.93;;;;;;;20.04;76.26;100778.78;6273968;28;20736;-67
2023/08/27 07:38:54;;;;;;;7.38;6.68;;;;;;;20.55;73.74;100787.53;6280719;28;20238;-67
2023/08/27 07:42:16;;;;;;;3.08;2.55;;;;;;;19.81;74.50;100803.69;6273114;28;20227;-67
2023/08/27 07:45:37;;;;;;;3.75;2.95;;;;;;;19.11;74.95;100795.38;6258550;28;20776;-67
2023/08/27 07:48:59;;;;;;;3.22;2.92;;;;;;;19.59;75.58;100784.72;6266063;28;20230;-67
2023/08/27 07:52:20;;;;;;;2.50;2.30;;;;;;;20.33;73.60;100795.03;6258607;28;20226;-69
2023/08/27 07:55:41;;;;;;;2.10;1.98;;;;;;;20.15;73.32;100791.09;6255860;28;20638;-68
2023/08/27 07:59:02;;;;;;;2.53;2.20;;;;;;;19.07;76.69;100802.25;6262975;28;20226;-68
2023/08/27 08:02:22;;;;;;;3.72;2.80;;;;;;;18.54;78.48;100786.25;6269333;28;20230;-67
2023/08/27 08:05:49;;;;;;;2.72;2.35;;;;;;;19.48;77.69;100797.06;6251914;28;20229;-66
2023/08/27 08:09:10;;;;;;;2.28;2.08;;;;;;;20.41;75.47;100783.91;6276898;28;20222;-67
2023/08/27 08:12:31;;;;;;;3.30;2.95;;;;;;;19.22;76.65;100806.81;6287238;28;20250;-66
2023/08/27 08:15:52;;;;;;;2.67;2.47;;;;;;;19.48;77.37;100827.13;6253258;28;20325;-66
2023/08/27 08:19:13;;;;;;;2.63;2.22;;;;;;;19.76;77.10;100832.66;6269567;28;20230;-71
2023/08/27 08:22:36;;;;;;;2.63;2.42;;;;;;;19.80;76.11;100833.94;6281914;28;20231;-68
2023/08/27 08:25:59;;;;;;;3.83;2.63;;;;;;;19.59;76.73;100828.47;6259247;28;20238;-68
2023/08/27 08:29:20;;;;;;;3.60;2.75;;;;;;;19.94;76.83;100811.97;6265276;28;20835;-67
2023/08/27 08:32:41;;;;;;;3.78;2.83;;;;;;;20.28;75.62;100819.41;6273391;28;20725;-67
2023/08/27 08:36:02;;;;;;;3.83;3.40;;;;;;;18.98;78.74;100827.16;6281394;28;20249;-66
2023/08/27 08:39:25;;;;;;;2.40;2.20;;;;;;;20.18;77.54;100827.09;6262185;28;20233;-66
2023/08/27 08:42:52;;;;;;;2.58;2.22;;;;;;;21.11;74.46;100816.50;6282336;28;20230;-67
2023/08/27 08:46:17;;;;;;;6.85;3.35;;;;;;;20.85;72.59;100788.97;6287189;28;20329;-67
2023/08/27 08:49:40;;;;;;;4.00;2.72;;;;;;;20.27;74.06;100775.81;6261958;28;20602;-66
2023/08/27 08:53:09;;;;;;;2.50;2.30;;;;;;;20.51;74.46;100764.34;6278006;28;20234;-65
2023/08/27 08:56:36;;;;;;;3.20;2.85;;;;;;;20.66;73.58;100760.44;6292737;28;20233;-66
2023/08/27 08:59:57;;;;;;;2.25;2.05;;;;;;;21.68;71.54;100768.47;6306350;28;20230;-66
2023/08/27 09:03:20;;;;;;;2.42;2.20;;;;;;;21.17;70.82;100769.03;6306424;28;20252;-66
2023/08/27 09:06:42;;;;;;;3.45;2.92;;;;;;;20.64;72.49;100768.00;6307873;28;20234;-66
2023/08/27 09:10:05;;;;;;;3.58;2.35;;;;;;;21.44;71.34;100768.03;6289784;28;20830;-66
2023/08/27 09:13:28;;;;;;;2.72;2.53;;;;;;;20.94;71.85;100774.03;6292738;28;21303;-66
2023/08/27 09:16:49;;;;;;;1.80;1.65;;;;;;;21.94;69.74;100771.28;6267670;28;20846;-66
2023/08/27 09:20:11;;;;;;;2.33;2.10;;;;;;;21.97;67.89;100768.94;6275468;28;20230;-67
2023/08/27 09:23:37;;;;;;;2.88;2.17;;;;;;;21.69;68.87;100775.69;6263551;28;20239;-67
2023/08/27 09:26:58;;;;;;;2.35;1.83;;;;;;;22.40;67.71;100772.03;6293049;28;20234;-67
2023/08/27 09:30:22;;;;;;;3.78;2.78;;;;;;;21.21;67.18;100767.59;6291705;28;20233;-66
2023/08/27 09:33:43;;;;;;;2.05;1.80;;;;;;;21.66;68.54;100754.13;6277421;28;20234;-66
2023/08/27 09:37:06;;;;;;;2.90;2.38;;;;;;;21.50;68.63;100749.91;6292879;28;20245;-66
2023/08/27 09:40:28;;;;;;;2.70;1.92;;;;;;;21.77;68.53;100764.47;6276706;28;20246;-66
2023/08/27 09:43:52;;;;;;;2.45;2.05;;;;;;;22.61;66.04;100760.78;6285205;28;20610;-67
2023/08/27 09:47:14;;;;;;;2.60;2.40;;;;;;;22.52;66.30;100774.94;6299225;28;20230;-66
2023/08/27 09:50:35;;;;;;;2.03;1.83;;;;;;;23.40;63.92;100765.91;6279381;28;21450;-67
2023/08/27 09:53:57;;;;;;;2.50;2.30;;;;;;;23.41;63.06;100760.16;6277250;28;20231;-67
2023/08/27 09:57:19;;;;;;;4.55;2.35;;;;;;;21.78;67.15;100768.94;6295966;28;20234;-67
2023/08/27 10:00:42;;;;;;;2.75;2.55;;;;;;;21.79;67.28;100752.25;6285890;28;20234;-64
2023/08/27 10:04:07;;;;;;;1.98;1.88;;;;;;;22.48;66.84;100751.72;6272110;28;20226;-66
2023/08/27 10:07:28;;;;;;;1.85;1.75;;;;;;;22.09;67.06;100760.91;6297474;28;20238;-65
2023/08/27 10:10:49;;;;;;;2.45;2.25;;;;;;;22.73;66.31;100758.22;6276857;28;20234;-66
2023/08/27 10:14:11;;;;;;;2.38;1.95;;;;;;;21.57;67.40;100758.97;6287522;28;20230;-66
2023/08/27 10:17:32;;;;;;;2.78;2.42;;;;;;;22.15;67.89;100744.38;6301533;28;21217;-66
2023/08/27 10:20:56;;;;;;;2.75;2.10;;;;;;;22.06;67.83;100744.84;6288145;28;20253;-67
2023/08/27 10:24:19;;;;;;;3.47;2.25;;;;;;;21.59;68.82;100736.84;6287617;28;20310;-66
2023/08/27 10:27:41;;;;;;;3.42;2.30;;;;;;;21.50;69.12;100725.22;6299536;28;20318;-67
2023/08/27 10:31:02;;;;;;;2.28;1.83;;;;;;;22.89;66.67;100730.19;6277494;28;20226;-65
2023/08/27 10:34:27;;;;;;;2.50;2.30;;;;;;;22.27;67.02;100709.72;6294635;28;20241;-66
2023/08/27 10:37:54;;;;;;;5.47;2.45;;;;;;;22.02;66.63;100708.75;6299120;28;20258;-67
2023/08/27 10:41:16;;;;;;;2.20;1.70;;;;;;;22.09;67.46;100701.31;6291480;28;20234;-65
2023/08/27 10:44:37;;;;;;;2.97;2.55;;;;;;;22.78;65.71;100700.69;6273456;28;20660;-67
2023/08/27 10:48:10;;;;;;;1.73;1.63;;;;;;;23.24;64.49;100684.69;6303306;28;20230;-66
2023/08/27 10:51:32;;;;;;;3.25;2.33;;;;;;;22.84;64.78;100680.53;6282739;28;20226;-67
2023/08/27 10:55:01;;;;;;;2.92;1.98;;;;;;;22.60;64.83;100684.03;6275481;28;20608;-66
2023/08/27 10:58:23;;;;;;;2.97;2.40;;;;;;;22.68;64.75;100686.53;6282195;28;20360;-67
2023/08/27 11:02:07;;;;;;;2.20;1.63;;;;;;;23.38;64.37;100680.81;6291083;28;20238;-67
2023/08/27 11:05:29;;;;;;;2.60;2.40;;;;;;;23.08;63.51;100695.38;6271837;28;20235;-65
2023/08/27 11:08:52;;;;;;;1.70;1.60;;;;;;;23.16;64.64;100684.97;6281815;28;20227;-66
2023/08/27 11:12:23;;;;;;;3.55;2.38;;;;;;;22.44;65.68;100676.28;6288096;28;20238;-66
2023/08/27 11:15:44;;;;;;;3.28;2.30;;;;;;;22.26;66.51;100669.56;6273916;28;20226;-64
2023/08/27 11:19:10;;;;;;;2.17;1.48;;;;;;;22.75;65.97;100659.88;6268226;28;20234;-66
2023/08/27 11:22:31;;;;;;;2.00;1.88;;;;;;;23.03;64.27;100661.16;6292300;28;20254;-67
2023/08/27 11:25:51;;;;;;;1.60;1.50;;;;;;;22.88;62.50;100657.03;6282518;28;20959;-67
2023/08/27 11:29:17;;;;;;;1.42;1.33;;;;;;;21.97;65.36;100659.09;6270099;28;20497;-67
2023/08/27 11:32:38;;;;;;;1.95;1.73;;;;;;;22.69;64.38;100663.50;6303441;28;20234;-66
2023/08/27 11:35:59;;;;;;;2.10;1.90;;;;;;;22.09;65.13;100665.63;6269409;28;20902;-66
2023/08/27 11:39:20;;;;;;;1.90;1.58;;;;;;;21.77;66.13;100662.94;6282929;28;20254;-66
2023/08/27 11:42:49;;;;;;;6.28;1.73;;;;;;;21.96;66.47;100662.94;6303214;28;20319;-66
2023/08/27 11:46:22;;;;;;;2.60;1.50;;;;;;;21.43;66.15;100670.34;6301148;28;20324;-66
2023/08/27 11:49:43;;;;;;;2.33;1.65;;;;;;;21.37;66.54;100684.06;6284038;28;20238;-66
2023/08/27 11:53:04;;;;;;;1.77;1.50;;;;;;;21.45;67.08;100683.84;6290362;28;20227;-67
2023/08/27 11:56:30;;;;;;;2.28;1.58;;;;;;;21.43;67.04;100680.47;6300992;28;20230;-67
2023/08/27 11:59:52;;;;;;;2.17;1.73;;;;;;;21.53;66.72;100666.34;6288226;28;20230;-67
2023/08/27 12:03:15;;;;;;;2.10;1.90;;;;;;;21.53;66.52;100664.44;6293285;28;20545;-66
2023/08/27 12:06:36;;;;;;;1.65;1.55;;;;;;;21.94;66.30;100661.44;6295463;28;20230;-66
2023/08/27 12:09:57;;;;;;;1.58;1.42;;;;;;;21.36;67.51;100674.16;6292826;28;20226;-67
2023/08/27 12:13:19;;;;;;;2.03;1.65;;;;;;;21.06;69.12;100668.22;6297088;28;20230;-67
2023/08/27 12:16:45;;;;;;;1.48;1.38;;;;;;;20.27;69.02;100732.84;6287666;28;20226;-73
2023/08/27 12:20:08;;;;;;;2.35;2.15;;;;;;;19.24;74.95;100726.31;6282458;28;20238;-70
2023/08/27 12:23:33;;;;;;;3.13;1.83;;;;;;;18.73;78.06;100732.94;6284140;28;20231;-69
2023/08/27 12:26:54;;;;;;;1.98;1.80;;;;;;;18.94;80.03;100730.22;6280068;28;20225;-70
2023/08/27 12:30:15;;;;;;;2.22;2.03;;;;;;;18.81;81.16;100691.84;6262623;28;20242;-68
2023/08/27 12:33:37;;;;;;;2.95;1.58;;;;;;;19.11;81.01;100672.38;6298926;28;20516;-67
2023/08/27 12:36:59;;;;;;;1.90;1.75;;;;;;;19.52;80.06;100671.69;6302278;28;20225;-68
2023/08/27 12:40:20;;;;;;;1.90;1.80;;;;;;;19.92;78.25;100674.50;6280823;28;20234;-68
2023/08/27 12:43:40;;;;;;;1.67;1.58;;;;;;;19.55;78.01;100672.13;6284359;28;20643;-67
2023/08/27 12:47:01;;;;;;;1.95;1.85;;;;;;;20.33;77.27;100670.94;6286879;28;20226;-68
2023/08/27 12:50:22;;;;;;;1.83;1.70;;;;;;;20.66;74.73;100675.50;6275458;28;20234;-68
2023/08/27 12:53:44;;;;;;;2.13;1.83;;;;;;;20.36;75.51;100676.84;6278083;28;20268;-68
2023/08/27 12:57:05;;;;;;;1.58;1.48;;;;;;;20.99;73.02;100663.75;6289563;28;20222;-69
2023/08/27 13:00:26;;;;;;;1.88;1.77;;;;;;;19.84;74.49;100658.25;6267977;28;20742;-69
2023/08/27 13:03:47;;;;;;;1.95;1.40;;;;;;;19.55;75.31;100663.94;6276438;28;20647;-68
2023/08/27 13:07:08;;;;;;;2.22;1.67;;;;;;;18.88;76.34;100682.66;6296835;28;20233;-67
2023/08/27 13:10:30;;;;;;;1.48;1.00;;;;;;;19.47;75.52;100665.97;6292485;28;20226;-67
2023/08/27 13:13:51;;;;;;;1.52;1.42;;;;;;;19.17;75.45;100657.06;6300931;28;20237;-67
2023/08/27 13:17:12;;;;;;;1.38;1.30;;;;;;;19.24;76.07;100648.94;6300020;28;20230;-67
2023/08/27 13:20:33;;;;;;;1.00;1.00;;;;;;;19.65;74.27;100649.94;6298865;28;20230;-67
2023/08/27 13:23:53;;;;;;;1.02;1.02;;;;;;;19.86;72.43;100658.88;6300618;28;20262;-67
2023/08/27 13:27:16;;;;;;;1.38;1.20;;;;;;;19.23;74.46;100656.31;6309523;28;20564;-68
2023/08/27 13:30:37;;;;;;;1.10;0.95;;;;;;;19.76;73.49;100671.22;6284265;28;20230;-68
2023/08/27 13:33:57;;;;;;;1.73;1.63;;;;;;;19.62;74.55;100670.31;6287852;28;20318;-67
2023/08/27 13:37:18;;;;;;;1.45;1.35;;;;;;;20.66;72.80;100658.22;6295194;28;20234;-67
2023/08/27 13:40:39;;;;;;;5.65;2.15;;;;;;;20.13;71.91;100664.50;6271438;28;20233;-68
2023/08/27 13:44:01;;;;;;;2.35;2.25;;;;;;;19.52;74.77;100656.16;6277949;28;20703;-66
2023/08/27 13:47:22;;;;;;;2.05;1.95;;;;;;;19.48;75.96;100668.53;6290362;28;20233;-67
2023/08/27 13:50:43;;;;;;;2.45;1.92;;;;;;;20.15;74.00;100654.22;6278544;28;20273;-67
2023/08/27 13:54:05;;;;;;;1.95;1.85;;;;;;;21.10;69.99;100649.47;6280976;28;20231;-67
2023/08/27 13:57:26;;;;;;;2.90;2.05;;;;;;;24.25;60.61;100661.31;6294025;28;20246;-66
2023/08/27 14:00:48;;;;;;;1.83;1.73;;;;;;;23.53;60.32;100656.53;6281811;28;20572;-67
2023/08/27 14:04:09;;;;;;;2.78;2.42;;;;;;;26.21;55.75;100659.28;6281222;28;20238;-67
2023/08/27 14:07:30;;;;;;;2.65;2.35;;;;;;;25.21;54.91;100645.56;6288171;28;20256;-68
2023/08/27 14:10:50;;;;;;;3.35;3.15;;;;;;;24.94;54.92;100658.06;6296439;28;20230;-67
2023/08/27 14:14:11;;;;;;;2.65;2.45;;;;;;;25.64;53.84;100644.44;6299500;28;20239;-68
2023/08/27 14:17:33;;;;;;;3.33;3.08;;;;;;;24.15;55.40;100644.50;6310621;28;20500;-65
2023/08/27 14:20:54;;;;;;;3.13;2.72;;;;;;;25.59;54.85;100647.06;6291466;28;20226;-68
2023/08/27 14:24:15;;;;;;;3.67;2.97;;;;;;;25.41;54.40;100649.91;6262444;28;20270;-67
2023/08/27 14:27:36;;;;;;;3.40;3.13;;;;;;;23.34;59.26;100651.22;6299694;28;20234;-65
2023/08/27 14:30:57;;;;;;;3.08;2.38;;;;;;;24.20;58.10;100639.13;6285261;28;20615;-66
2023/08/27 14:34:19;;;;;;;3.25;2.95;;;;;;;23.97;57.63;100638.09;6287882;28;20226;-67
2023/08/27 14:37:40;;;;;;;1.95;1.85;;;;;;;22.27;60.83;100653.94;6290487;28;20267;-68
2023/08/27 14:41:01;;;;;;;1.80;1.63;;;;;;;22.59;60.45;100647.47;6278374;28;20546;-67
2023/08/27 14:44:22;;;;;;;2.22;2.03;;;;;;;23.15;60.49;100652.19;6284137;28;20230;-68
2023/08/27 14:47:43;;;;;;;2.17;1.90;;;;;;;23.12;59.79;100658.13;6297736;28;20233;-68
2023/08/27 14:51:05;;;;;;;3.38;2.90;;;;;;;23.24;61.15;100646.19;6264910;28;20233;-66
2023/08/27 14:54:26;;;;;;;1.83;1.73;;;;;;;23.21;61.10;100643.88;6280717;28;20231;-67
2023/08/27 14:57:49;;;;;;;2.45;2.30;;;;;;;21.51;64.87;100649.25;6291022;28;20362;-66
2023/08/27 15:01:10;;;;;;;1.95;1.85;;;;;;;21.27;64.63;100656.22;6293941;28;20241;-68
2023/08/27 15:04:30;;;;;;;1.52;1.42;;;;;;;22.09;62.81;100651.88;6273891;28;20231;-66
2023/08/27 15:07:53;;;;;;;1.60;1.50;;;;;;;22.88;61.53;100648.78;6284925;28;21026;-67
2023/08/27 15:11:16;;;;;;;1.45;1.35;;;;;;;22.30;61.35;100659.00;6286663;28;20608;-64
2023/08/27 15:14:37;;;;;;;1.67;1.58;;;;;;;21.93;61.14;100668.84;6267541;28;21495;-66
2023/08/27 15:17:58;;;;;;;2.83;2.03;;;;;;;22.04;60.45;100667.34;6296768;28;20637;-64
2023/08/27 15:21:20;;;;;;;1.50;1.40;;;;;;;22.94;59.94;100668.00;6297397;28;20506;-65
2023/08/27 15:24:42;;;;;;;2.05;1.50;;;;;;;22.83;59.75;100665.94;6283669;28;20321;-64
2023/08/27 15:28:03;;;;;;;1.85;1.67;;;;;;;21.96;60.57;100662.06;6288289;28;20241;-64
2023/08/27 15:31:24;;;;;;;3.15;2.50;;;;;;;21.23;61.27;100666.78;6290789;28;20234;-65
2023/08/27 15:34:45;;;;;;;1.52;1.42;;;;;;;21.35;63.55;100667.81;6283505;28;20938;-64
2023/08/27 15:38:06;;;;;;;1.88;1.70;;;;;;;20.88;64.86;100667.94;6291400;28;20596;-64